ZKJEE NZWU-NZNP
Flight info
| Callsign | ZKJEE |
|---|---|
| Flight time | 0h 39m |
| Altitude | 9000 |
| Route | DEP29 MEVAX H499 SELTA |
| Aircraft | DHC6/L-SDFGR/C |
Departure
| Time | 2026-04-18 05:53 |
|---|---|
| Airport | Wanganui Airport (NZWU) |
Arrival
| Time | 2026-04-18 06:32 |
|---|---|
| Airport | New Plymouth Airport (NZNP) |
| Time | Latitude | Longitude | Altitude | Speed | Heading |
|---|---|---|---|---|---|
| 2026-04-18 05:49 | -39.96718 | 175.03088 | 36 ft | 0 kts | 307° |
| 2026-04-18 05:52 | -39.96681 | 175.03024 | 36 ft | 48 kts | 307° |
| 2026-04-18 05:53 | -39.96304 | 175.02371 | 50 ft | 119 kts | 307° |
| 2026-04-18 05:53 | -39.95789 | 175.01479 | 365 ft | 127 kts | 307° |
| 2026-04-18 05:53 | -39.95252 | 175.00584 | 819 ft | 123 kts | 317° |
| 2026-04-18 05:53 | -39.94642 | 174.99724 | 1024 ft | 146 kts | 299° |
| 2026-04-18 05:54 | -39.94025 | 174.98786 | 1577 ft | 124 kts | 315° |
| 2026-04-18 05:54 | -39.93444 | 174.97956 | 1887 ft | 130 kts | 308° |
| 2026-04-18 05:54 | -39.92808 | 174.97050 | 2287 ft | 133 kts | 296° |
| 2026-04-18 05:54 | -39.92221 | 174.96229 | 2704 ft | 119 kts | 315° |
| 2026-04-18 05:55 | -39.91674 | 174.95454 | 3044 ft | 115 kts | 316° |
| 2026-04-18 05:55 | -39.91165 | 174.94727 | 3374 ft | 113 kts | 316° |
| 2026-04-18 05:55 | -39.90614 | 174.93936 | 3737 ft | 113 kts | 317° |
| 2026-04-18 05:55 | -39.90086 | 174.93178 | 4084 ft | 114 kts | 319° |
| 2026-04-18 05:56 | -39.89554 | 174.92413 | 4431 ft | 115 kts | 320° |
| 2026-04-18 05:56 | -39.89002 | 174.91630 | 4791 ft | 116 kts | 315° |
| 2026-04-18 05:56 | -39.88470 | 174.90867 | 5136 ft | 116 kts | 314° |
| 2026-04-18 05:56 | -39.87934 | 174.90086 | 5486 ft | 116 kts | 314° |
| 2026-04-18 05:57 | -39.86874 | 174.88527 | 6188 ft | 115 kts | 314° |
| 2026-04-18 05:57 | -39.86337 | 174.87732 | 6539 ft | 116 kts | 314° |
| 2026-04-18 05:57 | -39.85803 | 174.86943 | 6897 ft | 116 kts | 315° |
| 2026-04-18 05:58 | -39.85265 | 174.86173 | 7241 ft | 117 kts | 315° |
| 2026-04-18 05:58 | -39.84750 | 174.85372 | 7593 ft | 117 kts | 313° |
| 2026-04-18 05:58 | -39.84232 | 174.84528 | 7949 ft | 119 kts | 313° |
| 2026-04-18 05:58 | -39.83710 | 174.83701 | 8304 ft | 119 kts | 313° |
| 2026-04-18 05:59 | -39.83177 | 174.82865 | 8659 ft | 119 kts | 313° |
| 2026-04-18 05:59 | -39.82636 | 174.82027 | 8901 ft | 125 kts | 314° |
| 2026-04-18 05:59 | -39.82046 | 174.81150 | 8991 ft | 134 kts | 314° |
| 2026-04-18 05:59 | -39.81420 | 174.80228 | 8999 ft | 137 kts | 314° |
| 2026-04-18 06:00 | -39.80790 | 174.79304 | 9002 ft | 139 kts | 314° |
| 2026-04-18 06:00 | -39.80145 | 174.78360 | 9004 ft | 140 kts | 314° |
| 2026-04-18 06:00 | -39.79504 | 174.77418 | 8999 ft | 140 kts | 314° |
| 2026-04-18 06:00 | -39.78846 | 174.76452 | 9000 ft | 141 kts | 314° |
| 2026-04-18 06:01 | -39.78196 | 174.75500 | 9000 ft | 141 kts | 315° |
| 2026-04-18 06:01 | -39.77537 | 174.74565 | 9002 ft | 141 kts | 315° |
| 2026-04-18 06:01 | -39.76891 | 174.73633 | 9001 ft | 141 kts | 314° |
| 2026-04-18 06:01 | -39.76229 | 174.72674 | 9001 ft | 140 kts | 315° |
| 2026-04-18 06:02 | -39.75562 | 174.71733 | 8997 ft | 140 kts | 315° |
| 2026-04-18 06:02 | -39.74912 | 174.70793 | 8999 ft | 141 kts | 314° |
| 2026-04-18 06:02 | -39.74268 | 174.69857 | 8996 ft | 141 kts | 315° |
| 2026-04-18 06:02 | -39.73593 | 174.68903 | 8994 ft | 141 kts | 315° |
| 2026-04-18 06:03 | -39.72935 | 174.67953 | 8999 ft | 141 kts | 314° |
| 2026-04-18 06:03 | -39.72283 | 174.67007 | 8999 ft | 141 kts | 314° |
| 2026-04-18 06:03 | -39.71625 | 174.66078 | 9010 ft | 139 kts | 315° |
| 2026-04-18 06:03 | -39.70968 | 174.65161 | 9005 ft | 138 kts | 315° |
| 2026-04-18 06:04 | -39.70327 | 174.64257 | 9007 ft | 136 kts | 320° |
| 2026-04-18 06:04 | -39.69514 | 174.63617 | 9017 ft | 137 kts | 329° |
| 2026-04-18 06:04 | -39.68657 | 174.63083 | 9015 ft | 137 kts | 331° |
| 2026-04-18 06:04 | -39.67790 | 174.62566 | 9010 ft | 137 kts | 331° |
| 2026-04-18 06:05 | -39.66922 | 174.62039 | 9011 ft | 136 kts | 330° |
| 2026-04-18 06:05 | -39.66071 | 174.61506 | 9008 ft | 136 kts | 330° |
| 2026-04-18 06:05 | -39.65219 | 174.60955 | 9008 ft | 136 kts | 329° |
| 2026-04-18 06:05 | -39.64384 | 174.60398 | 9015 ft | 135 kts | 328° |
| 2026-04-18 06:06 | -39.63546 | 174.59831 | 9003 ft | 136 kts | 329° |
| 2026-04-18 06:06 | -39.62699 | 174.59273 | 8999 ft | 136 kts | 329° |
| 2026-04-18 06:06 | -39.61868 | 174.58722 | 9000 ft | 135 kts | 329° |
| 2026-04-18 06:06 | -39.61033 | 174.58157 | 9003 ft | 135 kts | 329° |
| 2026-04-18 06:07 | -39.60189 | 174.57593 | 9004 ft | 135 kts | 329° |
| 2026-04-18 06:07 | -39.59366 | 174.57050 | 8995 ft | 136 kts | 330° |
| 2026-04-18 06:07 | -39.58507 | 174.56564 | 9006 ft | 138 kts | 332° |
| 2026-04-18 06:07 | -39.57625 | 174.56023 | 9002 ft | 136 kts | 329° |
| 2026-04-18 06:08 | -39.56802 | 174.55446 | 9002 ft | 136 kts | 328° |
| 2026-04-18 06:08 | -39.55978 | 174.54873 | 8999 ft | 135 kts | 328° |
| 2026-04-18 06:08 | -39.55150 | 174.54301 | 8999 ft | 135 kts | 328° |
| 2026-04-18 06:08 | -39.54321 | 174.53727 | 9005 ft | 134 kts | 328° |
| 2026-04-18 06:09 | -39.53504 | 174.53163 | 9003 ft | 134 kts | 328° |
| 2026-04-18 06:09 | -39.52664 | 174.52604 | 9009 ft | 134 kts | 329° |
| 2026-04-18 06:09 | -39.51834 | 174.52059 | 9006 ft | 135 kts | 328° |
| 2026-04-18 06:09 | -39.50996 | 174.51492 | 9003 ft | 135 kts | 329° |
| 2026-04-18 06:10 | -39.50167 | 174.50943 | 9001 ft | 135 kts | 329° |
| 2026-04-18 06:10 | -39.49328 | 174.50378 | 9007 ft | 134 kts | 328° |
| 2026-04-18 06:10 | -39.48494 | 174.49828 | 9003 ft | 135 kts | 329° |
| 2026-04-18 06:10 | -39.47667 | 174.49286 | 9003 ft | 135 kts | 329° |
| 2026-04-18 06:11 | -39.46831 | 174.48743 | 9003 ft | 135 kts | 329° |
| 2026-04-18 06:11 | -39.45989 | 174.48195 | 9005 ft | 135 kts | 329° |
| 2026-04-18 06:11 | -39.45156 | 174.47633 | 9002 ft | 135 kts | 329° |
| 2026-04-18 06:11 | -39.44317 | 174.47081 | 9005 ft | 135 kts | 329° |
| 2026-04-18 06:12 | -39.43493 | 174.46525 | 9007 ft | 135 kts | 328° |
| 2026-04-18 06:12 | -39.42669 | 174.45981 | 9004 ft | 135 kts | 329° |
| 2026-04-18 06:12 | -39.41832 | 174.45417 | 8999 ft | 135 kts | 329° |
| 2026-04-18 06:12 | -39.41002 | 174.44870 | 9001 ft | 135 kts | 329° |
| 2026-04-18 06:13 | -39.40146 | 174.44310 | 8997 ft | 135 kts | 329° |
| 2026-04-18 06:13 | -39.39309 | 174.43766 | 8999 ft | 135 kts | 329° |
| 2026-04-18 06:13 | -39.38488 | 174.43230 | 8999 ft | 135 kts | 329° |
| 2026-04-18 06:13 | -39.37631 | 174.42673 | 8998 ft | 135 kts | 329° |
| 2026-04-18 06:14 | -39.36815 | 174.42140 | 8999 ft | 135 kts | 329° |
| 2026-04-18 06:14 | -39.35951 | 174.41569 | 9004 ft | 135 kts | 329° |
| 2026-04-18 06:14 | -39.35120 | 174.41018 | 9002 ft | 135 kts | 329° |
| 2026-04-18 06:14 | -39.34281 | 174.40460 | 9004 ft | 135 kts | 329° |
| 2026-04-18 06:15 | -39.33438 | 174.39903 | 9004 ft | 135 kts | 329° |
| 2026-04-18 06:15 | -39.32606 | 174.39349 | 9002 ft | 135 kts | 329° |
| 2026-04-18 06:15 | -39.32033 | 174.38965 | 8999 ft | 135 kts | 329° |
| 2026-04-18 06:15 | -39.30930 | 174.38233 | 8998 ft | 135 kts | 329° |
| 2026-04-18 06:16 | -39.30095 | 174.37681 | 8998 ft | 135 kts | 329° |
| 2026-04-18 06:16 | -39.29537 | 174.37311 | 9000 ft | 135 kts | 330° |
| 2026-04-18 06:16 | -39.28691 | 174.36752 | 9003 ft | 136 kts | 330° |
| 2026-04-18 06:16 | -39.27850 | 174.36194 | 9001 ft | 136 kts | 330° |
| 2026-04-18 06:17 | -39.27029 | 174.35650 | 8997 ft | 136 kts | 330° |
| 2026-04-18 06:17 | -39.26169 | 174.35082 | 9002 ft | 136 kts | 330° |
| 2026-04-18 06:17 | -39.25326 | 174.34522 | 8998 ft | 136 kts | 331° |
| 2026-04-18 06:17 | -39.24497 | 174.33980 | 8996 ft | 136 kts | 331° |
| 2026-04-18 06:18 | -39.23632 | 174.33420 | 8999 ft | 136 kts | 331° |
| 2026-04-18 06:18 | -39.22784 | 174.32867 | 9001 ft | 136 kts | 331° |
| 2026-04-18 06:18 | -39.21938 | 174.32310 | 9002 ft | 137 kts | 332° |
| 2026-04-18 06:18 | -39.21081 | 174.31755 | 9001 ft | 137 kts | 333° |
| 2026-04-18 06:19 | -39.20234 | 174.31193 | 9000 ft | 138 kts | 333° |
| 2026-04-18 06:19 | -39.19367 | 174.30625 | 8996 ft | 141 kts | 330° |
| 2026-04-18 06:19 | -39.18488 | 174.30045 | 9000 ft | 144 kts | 330° |
| 2026-04-18 06:19 | -39.17596 | 174.29411 | 8994 ft | 145 kts | 327° |
| 2026-04-18 06:20 | -39.16991 | 174.28371 | 9008 ft | 151 kts | 302° |
| 2026-04-18 06:20 | -39.16688 | 174.27059 | 9008 ft | 157 kts | 293° |
| 2026-04-18 06:20 | -39.16483 | 174.25648 | 9003 ft | 160 kts | 294° |
| 2026-04-18 06:20 | -39.16268 | 174.24237 | 9003 ft | 163 kts | 296° |
| 2026-04-18 06:21 | -39.16002 | 174.22805 | 9006 ft | 164 kts | 297° |
| 2026-04-18 06:21 | -39.15724 | 174.21388 | 9004 ft | 165 kts | 297° |
| 2026-04-18 06:21 | -39.15455 | 174.19931 | 8998 ft | 166 kts | 297° |
| 2026-04-18 06:21 | -39.15171 | 174.18479 | 8996 ft | 166 kts | 297° |
| 2026-04-18 06:22 | -39.14883 | 174.17026 | 9001 ft | 165 kts | 297° |
| 2026-04-18 06:22 | -39.14599 | 174.15601 | 9000 ft | 165 kts | 297° |
| 2026-04-18 06:22 | -39.14329 | 174.14187 | 8926 ft | 162 kts | 296° |
| 2026-04-18 06:22 | -39.14075 | 174.12883 | 8662 ft | 139 kts | 300° |
| 2026-04-18 06:23 | -39.13864 | 174.11677 | 8344 ft | 135 kts | 299° |
| 2026-04-18 06:23 | -39.13652 | 174.10533 | 8080 ft | 130 kts | 299° |
| 2026-04-18 06:23 | -39.13436 | 174.09416 | 7821 ft | 126 kts | 300° |
| 2026-04-18 06:23 | -39.13237 | 174.08327 | 7561 ft | 128 kts | 294° |
| 2026-04-18 06:24 | -39.13169 | 174.07164 | 7304 ft | 127 kts | 293° |
| 2026-04-18 06:24 | -39.12944 | 174.06116 | 7051 ft | 117 kts | 305° |
| 2026-04-18 06:24 | -39.12641 | 174.05166 | 6804 ft | 115 kts | 306° |
| 2026-04-18 06:24 | -39.12184 | 174.04422 | 6529 ft | 104 kts | 333° |
| 2026-04-18 06:25 | -39.11530 | 174.04062 | 6302 ft | 99 kts | 341° |
| 2026-04-18 06:25 | -39.10885 | 174.03774 | 6054 ft | 98 kts | 341° |
| 2026-04-18 06:25 | -39.10251 | 174.03462 | 5805 ft | 97 kts | 339° |
| 2026-04-18 06:25 | -39.09627 | 174.03133 | 5551 ft | 96 kts | 338° |
| 2026-04-18 06:26 | -39.09029 | 174.02807 | 5328 ft | 92 kts | 337° |
| 2026-04-18 06:26 | -39.08457 | 174.02482 | 5119 ft | 88 kts | 338° |
| 2026-04-18 06:26 | -39.07899 | 174.02176 | 4920 ft | 85 kts | 337° |
| 2026-04-18 06:26 | -39.07356 | 174.01883 | 4712 ft | 85 kts | 340° |
| 2026-04-18 06:27 | -39.06786 | 174.02151 | 4428 ft | 109 kts | 36° |
| 2026-04-18 06:27 | -39.06523 | 174.03093 | 4313 ft | 113 kts | 55° |
| 2026-04-18 06:27 | -39.06322 | 174.04075 | 4105 ft | 114 kts | 53° |
| 2026-04-18 06:27 | -39.06093 | 174.05059 | 3907 ft | 113 kts | 51° |
| 2026-04-18 06:28 | -39.05840 | 174.06022 | 3709 ft | 112 kts | 49° |
| 2026-04-18 06:28 | -39.05575 | 174.06956 | 3513 ft | 112 kts | 47° |
| 2026-04-18 06:28 | -39.05294 | 174.07878 | 3312 ft | 111 kts | 46° |
| 2026-04-18 06:28 | -39.04997 | 174.08792 | 3104 ft | 112 kts | 44° |
| 2026-04-18 06:29 | -39.04681 | 174.09712 | 2914 ft | 109 kts | 43° |
| 2026-04-18 06:29 | -39.04401 | 174.10564 | 2724 ft | 100 kts | 41° |
| 2026-04-18 06:29 | -39.04138 | 174.11376 | 2495 ft | 97 kts | 39° |
| 2026-04-18 06:29 | -39.03880 | 174.12175 | 2287 ft | 93 kts | 39° |
| 2026-04-18 06:30 | -39.03604 | 174.12859 | 2095 ft | 83 kts | 42° |
| 2026-04-18 06:30 | -39.03221 | 174.13412 | 1878 ft | 81 kts | 34° |
| 2026-04-18 06:30 | -39.02905 | 174.13963 | 1701 ft | 75 kts | 35° |
| 2026-04-18 06:30 | -39.02652 | 174.14558 | 1494 ft | 75 kts | 39° |
| 2026-04-18 06:31 | -39.02327 | 174.14958 | 1370 ft | 79 kts | 46° |
| 2026-04-18 06:31 | -39.01876 | 174.15127 | 1121 ft | 63 kts | 31° |
| 2026-04-18 06:31 | -39.01469 | 174.15430 | 681 ft | 71 kts | 47° |
| 2026-04-18 06:31 | -39.01315 | 174.16083 | 437 ft | 72 kts | 70° |
| 2026-04-18 06:32 | -39.01122 | 174.16658 | 216 ft | 69 kts | 68° |
| 2026-04-18 06:32 | -39.00957 | 174.17197 | 107 ft | 57 kts | 64° |
| 2026-04-18 06:32 | -39.00924 | 174.17428 | 106 ft | 0 kts | 116° |